Time;durP1;ratioP1;P1;durP2;ratioP2;P2;SDS_P1;SDS_P2;PMS_P1;PMS_P2;Temp;Humidity;BMP_temperature;BMP_pressure;BME280_temperature;BME280_humidity;BME280_pressure;Samples;Min_cycle;Max_cycle;Signal;HPM_P1;HPM_P2
2022/08/13 00:02:16;;;;;;;0.20;0.20;;;17.20;99.90;;;;;;5063248;28;20526;-80
2022/08/13 00:04:53;;;;;;;0.20;0.20;;;17.20;99.90;;;;;;5053383;28;20037;-83
2022/08/13 00:07:19;;;;;;;0.10;0.10;;;17.10;99.90;;;;;;5050744;28;20037;-81
2022/08/13 00:09:45;;;;;;;;;;;17.10;99.90;;;;;;5042667;28;20063;-82
2022/08/13 00:15:31;;;;;;;0.10;0.10;;;17.10;99.90;;;;;;5048354;28;20060;-79
2022/08/13 00:18:00;;;;;;;0.20;0.20;;;17.10;99.90;;;;;;5046513;28;20063;-80
2022/08/13 00:20:29;;;;;;;0.20;0.20;;;17.10;99.90;;;;;;5053616;28;20067;-80
2022/08/13 00:22:56;;;;;;;0.30;0.30;;;17.10;99.90;;;;;;5051089;28;20068;-82
2022/08/13 00:25:23;;;;;;;0.20;0.20;;;17.10;99.90;;;;;;5051829;28;20158;-77
2022/08/13 00:27:56;;;;;;;0.22;0.22;;;17.00;99.90;;;;;;5015558;28;20479;-80
2022/08/13 00:30:30;;;;;;;0.30;0.30;;;17.00;99.90;;;;;;5053856;28;20548;-81
2022/08/13 00:32:59;;;;;;;0.20;0.20;;;17.00;99.90;;;;;;5045950;28;20053;-81
2022/08/13 00:35:27;;;;;;;0.20;0.20;;;16.90;99.90;;;;;;5057280;28;20078;-78
2022/08/13 00:37:56;;;;;;;0.28;0.28;;;16.90;99.90;;;;;;5056707;28;20377;-79
2022/08/13 00:40:22;;;;;;;0.20;0.20;;;16.90;99.90;;;;;;5051308;28;20071;-80
2022/08/13 00:42:50;;;;;;;0.20;0.20;;;16.90;99.90;;;;;;5040591;28;20105;-79
2022/08/13 00:45:16;;;;;;;0.15;0.15;;;16.80;99.90;;;;;;5060477;28;20454;-78
2022/08/13 00:50:27;;;;;;;0.20;0.20;;;16.80;99.90;;;;;;5053035;28;19939;-83
2022/08/13 00:52:55;;;;;;;0.20;0.20;;;16.70;99.90;;;;;;5067592;28;20032;-78
2022/08/13 00:55:23;;;;;;;;;;;16.70;99.90;;;;;;5055332;28;20478;-77
2022/08/13 00:57:51;;;;;;;0.30;0.30;;;16.60;99.90;;;;;;5063939;28;20315;-82
2022/08/13 01:00:20;;;;;;;0.30;0.30;;;16.60;99.90;;;;;;5066332;28;20049;-79
2022/08/13 01:02:49;;;;;;;0.30;0.30;;;16.50;99.90;;;;;;5068991;28;20094;-81
2022/08/13 01:05:15;;;;;;;0.28;0.28;;;16.50;99.90;;;;;;5035102;28;20120;-77
2022/08/13 01:07:43;;;;;;;0.28;0.28;;;16.50;99.90;;;;;;5068163;28;20039;-83
2022/08/13 01:10:11;;;;;;;0.22;0.22;;;16.40;99.90;;;;;;5051103;28;20072;-79
2022/08/13 01:12:38;;;;;;;0.20;0.20;;;16.40;99.90;;;;;;5039293;28;20051;-79
2022/08/13 01:15:06;;;;;;;0.20;0.20;;;16.40;99.90;;;;;;5053435;28;20080;-80
2022/08/13 01:17:32;;;;;;;0.20;0.20;;;16.40;99.90;;;;;;5057474;28;20462;-76
2022/08/13 01:19:58;;;;;;;0.20;0.20;;;16.30;99.90;;;;;;5034901;28;20084;-79
2022/08/13 01:22:25;;;;;;;;;;;16.30;99.90;;;;;;5053121;28;20560;-79
2022/08/13 01:24:51;;;;;;;0.20;0.20;;;16.30;99.90;;;;;;5051306;28;19963;-81
2022/08/13 01:27:23;;;;;;;0.20;0.20;;;16.20;99.90;;;;;;5050623;28;20075;-79
2022/08/13 01:29:49;;;;;;;0.25;0.25;;;16.20;99.90;;;;;;5055128;28;20048;-81
2022/08/13 01:32:19;;;;;;;0.10;0.10;;;16.20;99.90;;;;;;5054449;28;20057;-79
2022/08/13 01:34:50;;;;;;;0.20;0.20;;;16.20;99.90;;;;;;5051754;28;20045;-77
2022/08/13 01:37:17;;;;;;;0.30;0.30;;;16.10;99.90;;;;;;5034470;28;20072;-80
2022/08/13 01:39:44;;;;;;;0.10;0.10;;;16.10;99.90;;;;;;5017677;28;20041;-80
2022/08/13 01:42:20;;;;;;;0.20;0.20;;;16.00;99.90;;;;;;5051905;28;20044;-77
2022/08/13 01:44:49;;;;;;;;;;;16.00;99.90;;;;;;5045728;28;20047;-80
2022/08/13 01:52:45;;;;;;;0.20;0.20;;;16.00;99.90;;;;;;5052792;28;20048;-80
2022/08/13 01:55:12;;;;;;;;;;;15.90;99.90;;;;;;5035546;28;20124;-81
2022/08/13 01:57:40;;;;;;;0.40;0.40;;;15.90;99.90;;;;;;5050304;28;19928;-79
2022/08/13 02:00:09;;;;;;;0.30;0.30;;;15.90;99.90;;;;;;5018218;28;20041;-80
2022/08/13 02:02:36;;;;;;;0.20;0.20;;;15.90;99.90;;;;;;5069322;28;20029;-76
2022/08/13 02:05:02;;;;;;;0.30;0.30;;;15.80;99.90;;;;;;5052081;28;20053;-82
2022/08/13 02:07:30;;;;;;;0.20;0.20;;;15.80;99.90;;;;;;5066941;28;20052;-80
2022/08/13 02:09:56;;;;;;;0.20;0.20;;;15.80;99.90;;;;;;5043751;28;20120;-77
2022/08/13 02:12:22;;;;;;;;;;;15.70;99.90;;;;;;5051797;28;20175;-79
2022/08/13 02:14:47;;;;;;;0.30;0.30;;;15.70;99.90;;;;;;5052833;28;19923;-79
2022/08/13 02:17:25;;;;;;;;;;;15.70;99.90;;;;;;5057176;28;20195;-76
2022/08/13 02:19:55;;;;;;;0.20;0.20;;;15.70;99.90;;;;;;5053040;28;19983;-79
2022/08/13 02:22:24;;;;;;;0.20;0.20;;;15.70;99.90;;;;;;5056154;28;20040;-79
2022/08/13 02:24:56;;;;;;;0.30;0.30;;;15.70;99.90;;;;;;5026307;28;20116;-81
2022/08/13 02:27:25;;;;;;;0.20;0.20;;;15.60;99.90;;;;;;5053540;28;20519;-79
2022/08/13 02:29:53;;;;;;;0.20;0.20;;;15.60;99.90;;;;;;5054342;28;20041;-81
2022/08/13 02:32:20;;;;;;;0.20;0.20;;;15.60;99.90;;;;;;5055211;28;20059;-81
2022/08/13 02:34:50;;;;;;;0.20;0.20;;;15.50;99.90;;;;;;5017523;28;20055;-83
2022/08/13 02:37:21;;;;;;;0.20;0.20;;;15.50;99.90;;;;;;5040879;28;20135;-80
2022/08/13 02:39:51;;;;;;;0.20;0.20;;;15.60;99.90;;;;;;5051287;28;20088;-82
2022/08/13 02:42:18;;;;;;;0.13;0.13;;;15.50;99.90;;;;;;5048335;28;20045;-78
2022/08/13 02:44:48;;;;;;;0.50;0.45;;;15.60;99.90;;;;;;5044464;28;20040;-83
2022/08/13 02:47:19;;;;;;;0.32;0.32;;;15.60;99.90;;;;;;5050163;28;20037;-81
2022/08/13 02:49:47;;;;;;;0.20;0.20;;;15.50;99.90;;;;;;5047859;28;20049;-80
2022/08/13 02:52:14;;;;;;;0.25;0.25;;;15.50;99.90;;;;;;5033183;28;20457;-80
2022/08/13 02:54:42;;;;;;;0.32;0.32;;;15.40;99.90;;;;;;5064091;28;20490;-83
2022/08/13 02:57:10;;;;;;;0.20;0.20;;;15.50;99.90;;;;;;5049100;28;20128;-77
2022/08/13 02:59:36;;;;;;;0.28;0.28;;;15.40;99.90;;;;;;5032935;28;20049;-82
2022/08/13 03:02:04;;;;;;;0.40;0.40;;;15.40;99.90;;;;;;5049591;28;20048;-82
2022/08/13 03:04:30;;;;;;;0.20;0.20;;;15.40;99.90;;;;;;5066239;28;20756;-79
2022/08/13 03:06:56;;;;;;;0.20;0.20;;;15.30;99.90;;;;;;5049473;28;20517;-81
2022/08/13 03:09:22;;;;;;;0.30;0.30;;;15.40;99.90;;;;;;5045509;28;20084;-80
2022/08/13 03:11:49;;;;;;;;;;;15.30;99.90;;;;;;5041539;28;20083;-77
2022/08/13 03:14:16;;;;;;;0.30;0.30;;;15.30;99.90;;;;;;5049437;28;19920;-78
2022/08/13 03:16:42;;;;;;;0.22;0.22;;;15.20;99.90;;;;;;5030527;28;20064;-81
2022/08/13 03:19:07;;;;;;;;;;;15.30;99.90;;;;;;5047768;28;20045;-78
2022/08/13 03:21:37;;;;;;;0.30;0.30;;;15.20;99.90;;;;;;5048809;28;19917;-80
2022/08/13 03:24:04;;;;;;;0.25;0.25;;;15.20;99.90;;;;;;5052759;28;20490;-78
2022/08/13 03:26:33;;;;;;;0.22;0.22;;;15.20;99.90;;;;;;5048843;28;20044;-77
2022/08/13 03:29:01;;;;;;;0.20;0.20;;;15.10;99.90;;;;;;5054668;28;20479;-77
2022/08/13 03:31:29;;;;;;;0.32;0.32;;;15.10;99.90;;;;;;5053012;28;20158;-80
2022/08/13 03:33:58;;;;;;;0.20;0.20;;;15.10;99.90;;;;;;5051273;28;20111;-78
2022/08/13 03:36:26;;;;;;;0.20;0.20;;;15.10;99.90;;;;;;5039459;28;20415;-77
2022/08/13 03:38:51;;;;;;;0.20;0.20;;;15.00;99.90;;;;;;5028966;28;20045;-78
2022/08/13 03:41:17;;;;;;;;;;;15.00;99.90;;;;;;5008224;28;20041;-76
2022/08/13 03:43:45;;;;;;;0.30;0.30;;;15.00;99.90;;;;;;5056928;28;20289;-81
2022/08/13 03:46:33;;;;;;;0.30;0.30;;;14.90;99.90;;;;;;5054979;28;20088;-79
2022/08/13 03:48:58;;;;;;;;;;;14.90;99.90;;;;;;5048597;28;20243;-81
2022/08/13 03:51:24;;;;;;;0.20;0.20;;;14.80;99.90;;;;;;5050473;28;20057;-77
2022/08/13 03:53:53;;;;;;;0.30;0.30;;;14.80;99.90;;;;;;5059418;28;20047;-81
2022/08/13 03:56:20;;;;;;;0.30;0.30;;;14.80;99.90;;;;;;5053298;28;20120;-79
2022/08/13 03:58:46;;;;;;;0.30;0.30;;;14.80;99.90;;;;;;5066630;28;20438;-81
2022/08/13 04:01:18;;;;;;;0.20;0.20;;;14.80;99.90;;;;;;5055199;28;20045;-80
2022/08/13 04:03:44;;;;;;;;;;;14.80;99.90;;;;;;5030901;28;20037;-76
2022/08/13 04:06:16;;;;;;;0.20;0.20;;;14.80;99.90;;;;;;5056688;28;19904;-83
2022/08/13 04:08:44;;;;;;;0.22;0.22;;;14.80;99.90;;;;;;5044964;28;20049;-81
2022/08/13 04:11:15;;;;;;;0.20;0.20;;;14.80;99.90;;;;;;5053726;28;20048;-81
2022/08/13 04:13:42;;;;;;;0.30;0.30;;;14.80;99.90;;;;;;5061881;28;20059;-78
2022/08/13 04:16:18;;;;;;;0.30;0.30;;;14.80;99.90;;;;;;5053656;28;20072;-80
2022/08/13 04:18:45;;;;;;;0.30;0.30;;;14.70;99.90;;;;;;5057525;28;20047;-81
2022/08/13 04:21:14;;;;;;;0.20;0.20;;;14.80;99.90;;;;;;5054936;28;20563;-81
2022/08/13 04:23:43;;;;;;;0.20;0.20;;;14.80;99.90;;;;;;5036453;28;20041;-78
2022/08/13 04:26:15;;;;;;;0.20;0.20;;;14.80;99.90;;;;;;5052270;28;20117;-80
2022/08/13 04:28:42;;;;;;;0.20;0.20;;;14.80;99.90;;;;;;5059758;28;20375;-79
2022/08/13 04:31:12;;;;;;;0.47;0.47;;;14.80;99.90;;;;;;5056291;28;20041;-77
2022/08/13 04:33:39;;;;;;;0.30;0.30;;;14.80;99.90;;;;;;5020999;28;20057;-81
2022/08/13 04:36:05;;;;;;;0.20;0.20;;;14.80;99.90;;;;;;5043202;28;20486;-80
2022/08/13 04:38:32;;;;;;;0.30;0.30;;;14.80;99.90;;;;;;5052878;28;20041;-82
2022/08/13 04:40:58;;;;;;;0.25;0.25;;;14.80;99.90;;;;;;5035641;28;20094;-80
2022/08/13 04:43:23;;;;;;;;;;;14.90;99.90;;;;;;5056929;28;20041;-83
2022/08/13 04:45:49;;;;;;;0.22;0.22;;;14.90;99.90;;;;;;5042358;28;19917;-83
2022/08/13 04:48:15;;;;;;;0.30;0.30;;;15.00;99.90;;;;;;5053818;28;20117;-77
2022/08/13 04:50:47;;;;;;;0.30;0.30;;;15.00;99.90;;;;;;5052502;28;20090;-82
2022/08/13 04:53:29;;;;;;;0.30;0.30;;;15.00;99.90;;;;;;5068587;28;20080;-80
2022/08/13 04:55:56;;;;;;;0.20;0.20;;;15.10;99.90;;;;;;5056192;28;20044;-76
2022/08/13 04:58:23;;;;;;;0.63;0.63;;;15.10;99.90;;;;;;5048545;28;20049;-79
2022/08/13 05:00:50;;;;;;;0.20;0.20;;;15.30;99.90;;;;;;5068835;28;20548;-82
2022/08/13 05:03:21;;;;;;;0.20;0.20;;;15.30;99.90;;;;;;5058855;28;20394;-76
2022/08/13 05:05:49;;;;;;;0.30;0.30;;;15.30;99.90;;;;;;5051893;28;20123;-80
2022/08/13 05:08:15;;;;;;;0.35;0.35;;;15.30;99.90;;;;;;5048092;28;20037;-76
2022/08/13 05:10:43;;;;;;;0.20;0.20;;;15.40;99.90;;;;;;5054209;28;20127;-82
2022/08/13 05:13:20;;;;;;;0.20;0.20;;;15.40;99.90;;;;;;5039197;28;20044;-76
2022/08/13 05:15:46;;;;;;;0.20;0.20;;;15.50;99.90;;;;;;5036062;28;20071;-79
2022/08/13 05:18:12;;;;;;;0.15;0.15;;;15.60;99.90;;;;;;5055234;28;20083;-78
2022/08/13 05:20:39;;;;;;;0.20;0.20;;;15.60;99.90;;;;;;5035095;28;20099;-80
2022/08/13 05:23:13;;;;;;;0.20;0.20;;;15.70;99.90;;;;;;5031644;28;20045;-79
2022/08/13 05:25:40;;;;;;;0.30;0.30;;;15.70;99.90;;;;;;5053890;28;20052;-82
2022/08/13 05:28:08;;;;;;;0.25;0.25;;;15.80;99.90;;;;;;5050923;28;20041;-78
2022/08/13 05:30:38;;;;;;;0.20;0.20;;;15.90;99.90;;;;;;5034132;28;20040;-80
2022/08/13 05:33:22;;;;;;;0.20;0.20;;;16.00;99.90;;;;;;5033800;28;20072;-77
2022/08/13 05:35:52;;;;;;;0.30;0.30;;;16.00;99.90;;;;;;5052821;28;20079;-80
2022/08/13 05:38:22;;;;;;;0.20;0.20;;;16.10;99.90;;;;;;5052702;28;20080;-80
2022/08/13 05:40:54;;;;;;;0.30;0.30;;;16.60;99.90;;;;;;5052396;28;20095;-81
2022/08/13 05:43:23;;;;;;;0.20;0.20;;;16.40;99.90;;;;;;5039752;28;20124;-79
2022/08/13 05:45:57;;;;;;;0.20;0.20;;;16.50;99.90;;;;;;5018152;28;20037;-77
2022/08/13 05:48:29;;;;;;;0.20;0.20;;;16.60;99.90;;;;;;5051447;28;20116;-80
2022/08/13 05:50:59;;;;;;;0.22;0.22;;;16.80;99.90;;;;;;5042750;28;20037;-82
2022/08/13 05:53:26;;;;;;;0.20;0.20;;;16.90;99.90;;;;;;5064550;28;20037;-79
2022/08/13 05:55:53;;;;;;;0.22;0.22;;;17.10;99.90;;;;;;5067452;28;20439;-80
2022/08/13 05:58:20;;;;;;;0.13;0.13;;;17.20;99.90;;;;;;5066627;28;20084;-81
2022/08/13 06:03:33;;;;;;;0.20;0.20;;;17.50;99.90;;;;;;5050568;28;20147;-82
2022/08/13 06:06:01;;;;;;;0.20;0.20;;;17.70;99.90;;;;;;5074981;28;20084;-76
2022/08/13 06:08:29;;;;;;;0.20;0.20;;;17.80;99.90;;;;;;5063187;28;20044;-81
2022/08/13 06:11:06;;;;;;;0.20;0.20;;;17.90;99.90;;;;;;5040036;28;20510;-80
2022/08/13 06:13:33;;;;;;;0.10;0.10;;;18.00;99.90;;;;;;5044046;28;20044;-81
2022/08/13 06:16:01;;;;;;;0.20;0.20;;;18.10;99.90;;;;;;5048565;28;20086;-76
2022/08/13 06:18:32;;;;;;;0.20;0.20;;;18.20;99.90;;;;;;5055066;28;20041;-79
2022/08/13 06:21:01;;;;;;;0.30;0.30;;;18.30;99.90;;;;;;5054599;28;20040;-79
2022/08/13 06:23:31;;;;;;;0.30;0.30;;;18.40;99.90;;;;;;5047571;28;20422;-78
2022/08/13 06:25:58;;;;;;;0.20;0.20;;;18.50;99.90;;;;;;5053922;28;20614;-80
2022/08/13 06:28:26;;;;;;;0.30;0.30;;;18.60;99.90;;;;;;5049479;28;20033;-81
2022/08/13 06:31:07;;;;;;;0.22;0.22;;;18.80;99.90;;;;;;5051514;28;20051;-81
2022/08/13 06:33:36;;;;;;;0.20;0.20;;;18.90;99.90;;;;;;5035274;28;20114;-78
2022/08/13 06:36:04;;;;;;;0.13;0.13;;;19.20;99.90;;;;;;5052066;28;20059;-78
2022/08/13 06:38:33;;;;;;;0.20;0.20;;;19.40;99.90;;;;;;5046939;28;20045;-76
2022/08/13 06:41:02;;;;;;;1.25;0.85;;;19.80;99.90;;;;;;5050210;28;20063;-77
2022/08/13 06:43:30;;;;;;;0.28;0.28;;;19.90;99.90;;;;;;5055921;28;20037;-77
2022/08/13 06:45:58;;;;;;;0.20;0.20;;;19.90;99.90;;;;;;5054436;28;20052;-78
2022/08/13 06:48:24;;;;;;;0.20;0.20;;;20.00;99.90;;;;;;5050376;28;20133;-78
2022/08/13 06:50:50;;;;;;;0.20;0.20;;;;;;;;;;5033863;28;20120;-82
2022/08/13 06:53:17;;;;;;;0.10;0.10;;;20.20;99.90;;;;;;5056913;28;20087;-78
2022/08/13 06:55:44;;;;;;;0.20;0.20;;;;;;;;;;5024769;28;20041;-79
2022/08/13 06:58:10;;;;;;;0.20;0.20;;;;;;;;;;5033438;28;20044;-82
2022/08/13 07:00:43;;;;;;;0.10;0.10;;;20.90;99.90;;;;;;5057551;28;20078;-78
2022/08/13 07:03:10;;;;;;;0.28;0.28;;;21.00;99.90;;;;;;5050500;28;20075;-78
2022/08/13 07:05:41;;;;;;;0.10;0.10;;;21.10;99.90;;;;;;5050702;28;20116;-78
2022/08/13 07:08:09;;;;;;;0.30;0.30;;;21.30;99.90;;;;;;5062374;28;20127;-75
2022/08/13 07:10:36;;;;;;;0.20;0.20;;;21.40;99.90;;;;;;5043261;28;20041;-76
2022/08/13 07:13:05;;;;;;;0.20;0.20;;;21.60;99.90;;;;;;5053537;28;20083;-78
2022/08/13 07:15:31;;;;;;;0.10;0.10;;;21.80;99.90;;;;;;5050282;28;20059;-79
2022/08/13 07:17:58;;;;;;;0.20;0.20;;;21.90;99.90;;;;;;5016209;28;20080;-79
2022/08/13 07:20:25;;;;;;;0.20;0.20;;;22.00;99.90;;;;;;5051700;28;20485;-79
2022/08/13 07:22:55;;;;;;;0.20;0.20;;;22.20;99.90;;;;;;5054245;28;20441;-79
2022/08/13 07:25:23;;;;;;;0.20;0.20;;;22.30;99.90;;;;;;5049263;28;20120;-79
2022/08/13 07:27:51;;;;;;;0.20;0.20;;;22.50;99.90;;;;;;5056730;28;20355;-80
2022/08/13 07:30:19;;;;;;;0.30;0.30;;;22.60;99.90;;;;;;5054052;28;20131;-80
2022/08/13 07:32:44;;;;;;;0.28;0.28;;;22.70;99.90;;;;;;5051833;28;20060;-77
2022/08/13 07:35:11;;;;;;;0.30;0.30;;;22.80;99.90;;;;;;5053385;28;20044;-79
2022/08/13 07:37:41;;;;;;;0.45;0.45;;;22.90;99.90;;;;;;5018515;28;20088;-79
2022/08/13 07:40:08;;;;;;;0.20;0.20;;;23.00;99.90;;;;;;5048790;28;20149;-76
2022/08/13 07:42:43;;;;;;;0.20;0.20;;;23.20;99.90;;;;;;5053809;28;20049;-78
2022/08/13 07:45:10;;;;;;;0.20;0.20;;;23.40;99.90;;;;;;5057948;28;20331;-79
2022/08/13 07:47:39;;;;;;;0.38;0.38;;;23.50;99.90;;;;;;5054835;28;20037;-77
2022/08/13 07:50:10;;;;;;;0.20;0.20;;;23.60;99.90;;;;;;5055472;28;20045;-81
2022/08/13 07:52:38;;;;;;;0.30;0.30;;;23.70;99.90;;;;;;5069401;28;20036;-80
2022/08/13 07:55:05;;;;;;;0.10;0.10;;;23.90;99.90;;;;;;5055164;28;20060;-80
2022/08/13 07:57:32;;;;;;;0.20;0.20;;;24.00;99.90;;;;;;5069040;28;20045;-79
2022/08/13 07:59:58;;;;;;;0.45;0.45;;;24.10;99.90;;;;;;5049227;28;20065;-77
2022/08/13 08:02:27;;;;;;;0.17;0.17;;;24.30;99.90;;;;;;5052901;28;20126;-79
2022/08/13 08:04:56;;;;;;;0.45;0.32;;;24.50;99.90;;;;;;5052624;28;20049;-75
2022/08/13 08:07:25;;;;;;;0.38;0.38;;;24.60;99.90;;;;;;5070416;28;20128;-77
2022/08/13 08:09:54;;;;;;;0.20;0.20;;;24.70;98.90;;;;;;5051787;28;20039;-79
2022/08/13 08:12:36;;;;;;;0.15;0.15;;;24.80;99.10;;;;;;5061212;28;20048;-75
2022/08/13 08:15:08;;;;;;;0.20;0.20;;;24.90;98.50;;;;;;5041706;28;20048;-78
2022/08/13 08:17:34;;;;;;;0.40;0.40;;;25.00;96.10;;;;;;5071235;28;20078;-75
2022/08/13 08:20:02;;;;;;;0.15;0.15;;;25.10;97.50;;;;;;5035983;28;20494;-78
2022/08/13 08:22:29;;;;;;;0.20;0.20;;;25.20;96.90;;;;;;5058411;28;20064;-77
2022/08/13 08:24:54;;;;;;;0.30;0.30;;;25.40;97.10;;;;;;5056418;28;20041;-80
2022/08/13 08:27:20;;;;;;;0.13;0.13;;;25.50;96.10;;;;;;5062718;28;20036;-77
2022/08/13 08:29:47;;;;;;;0.20;0.20;;;25.60;95.80;;;;;;5053032;28;20041;-79
2022/08/13 08:32:14;;;;;;;0.32;0.32;;;25.70;96.40;;;;;;5052801;28;20516;-75
2022/08/13 08:34:46;;;;;;;0.20;0.20;;;25.80;95.80;;;;;;5051594;28;20091;-76
2022/08/13 08:42:53;;;;;;;0.30;0.30;;;26.10;94.40;;;;;;5056184;28;20132;-81
2022/08/13 08:45:24;;;;;;;0.20;0.20;;;26.20;92.30;;;;;;5059946;28;20572;-76
2022/08/13 08:47:52;;;;;;;0.13;0.13;;;26.30;92.30;;;;;;5052443;28;20029;-80
2022/08/13 08:50:24;;;;;;;0.20;0.20;;;26.40;92.40;;;;;;5053133;28;20049;-78
2022/08/13 08:53:34;;;;;;;0.20;0.20;;;26.50;88.40;;;;;;5068859;28;20099;-80
2022/08/13 08:55:43;;;;;;;0.22;0.22;;;26.60;88.30;;;;;;5040797;28;20055;-77
2022/08/13 08:58:11;;;;;;;0.10;0.10;;;26.70;91.70;;;;;;5065700;28;20048;-79
2022/08/13 09:00:39;;;;;;;0.43;0.20;;;26.80;89.20;;;;;;5067955;28;20075;-76
2022/08/13 09:03:07;;;;;;;0.20;0.20;;;26.90;90.10;;;;;;5049500;28;20045;-76
2022/08/13 09:05:33;;;;;;;0.15;0.15;;;26.90;83.30;;;;;;5046482;28;20053;-80
2022/08/13 09:08:01;;;;;;;0.20;0.20;;;27.00;84.10;;;;;;5067475;28;20037;-79
2022/08/13 09:10:32;;;;;;;0.10;0.10;;;27.10;82.70;;;;;;5035893;28;20044;-77
2022/08/13 09:13:01;;;;;;;0.10;0.10;;;27.20;85.90;;;;;;5050381;28;20052;-80
2022/08/13 09:15:27;;;;;;;0.13;0.13;;;27.20;81.40;;;;;;5060381;28;20053;-80
2022/08/13 09:17:53;;;;;;;0.40;0.28;;;27.30;85.00;;;;;;5051978;28;20052;-77
2022/08/13 09:20:22;;;;;;;0.30;0.30;;;27.40;84.80;;;;;;5034224;28;20041;-79
2022/08/13 09:23:03;;;;;;;0.10;0.10;;;27.50;74.40;;;;;;5053959;28;20497;-78
2022/08/13 09:25:30;;;;;;;0.47;0.47;;;27.50;77.50;;;;;;5056659;28;20086;-76
2022/08/13 09:27:57;;;;;;;0.30;0.30;;;27.60;77.80;;;;;;5056084;28;20056;-81
2022/08/13 09:30:24;;;;;;;0.10;0.10;;;27.70;77.70;;;;;;5057512;28;20056;-79
2022/08/13 09:32:56;;;;;;;0.20;0.20;;;27.70;80.20;;;;;;5043781;28;20060;-78
2022/08/13 09:35:23;;;;;;;0.22;0.22;;;27.80;75.80;;;;;;5035556;28;20134;-82
2022/08/13 09:37:50;;;;;;;0.20;0.20;;;27.90;73.60;;;;;;5041231;28;20371;-75
2022/08/13 09:40:17;;;;;;;0.20;0.20;;;27.90;73.10;;;;;;5050875;28;20055;-80
2022/08/13 09:42:57;;;;;;;0.15;0.15;;;28.00;69.20;;;;;;5052381;28;20083;-80
2022/08/13 09:45:25;;;;;;;0.15;0.15;;;28.00;71.80;;;;;;5057748;28;20037;-75
2022/08/13 09:47:54;;;;;;;0.20;0.20;;;28.10;70.20;;;;;;5051442;28;20040;-82
2022/08/13 09:50:23;;;;;;;0.30;0.30;;;28.20;67.90;;;;;;5057437;28;20063;-80
2022/08/13 09:52:51;;;;;;;0.20;0.20;;;28.30;70.00;;;;;;5052004;28;20474;-78
2022/08/13 09:55:17;;;;;;;0.20;0.20;;;28.30;71.00;;;;;;5051799;28;20048;-82
2022/08/13 09:57:54;;;;;;;0.20;0.20;;;28.30;65.40;;;;;;5034116;28;20041;-80
2022/08/13 10:00:22;;;;;;;0.10;0.10;;;28.40;69.80;;;;;;5052175;28;20053;-78
2022/08/13 10:03:12;;;;;;;0.20;0.20;;;28.50;71.10;;;;;;5051419;28;20112;-80
2022/08/13 10:05:38;;;;;;;0.28;0.28;;;28.50;68.70;;;;;;5050777;28;20041;-76
2022/08/13 10:08:12;;;;;;;0.20;0.20;;;28.70;70.60;;;;;;5048505;28;20529;-79
2022/08/13 10:10:38;;;;;;;0.10;0.10;;;28.70;62.70;;;;;;5059702;28;20038;-76
2022/08/13 10:13:03;;;;;;;0.20;0.20;;;28.70;65.60;;;;;;5066776;28;20044;-77
2022/08/13 10:15:30;;;;;;;0.10;0.10;;;28.90;66.00;;;;;;5051057;28;20052;-80
2022/08/13 10:17:58;;;;;;;0.10;0.10;;;28.90;69.60;;;;;;5050444;28;20547;-77
2022/08/13 10:20:36;;;;;;;0.35;0.32;;;29.00;61.90;;;;;;5054111;28;20128;-77
2022/08/13 10:23:13;;;;;;;0.17;0.17;;;29.00;64.00;;;;;;5048967;28;20081;-80
2022/08/13 10:25:40;;;;;;;0.17;0.17;;;29.00;61.70;;;;;;5056571;28;20037;-74
2022/08/13 10:28:26;;;;;;;0.30;0.30;;;29.10;60.80;;;;;;5070977;28;20102;-79
2022/08/13 10:30:54;;;;;;;0.10;0.10;;;29.20;61.90;;;;;;5053617;28;20048;-76
2022/08/13 10:33:21;;;;;;;0.10;0.10;;;29.30;62.60;;;;;;5033398;28;20107;-79
2022/08/13 10:35:52;;;;;;;0.20;0.20;;;29.30;64.80;;;;;;5051787;28;20128;-77
2022/08/13 10:38:26;;;;;;;0.10;0.10;;;29.40;61.10;;;;;;5049522;28;20049;-78
2022/08/13 10:41:09;;;;;;;0.10;0.10;;;29.40;61.60;;;;;;5050336;28;20048;-78
2022/08/13 10:43:38;;;;;;;0.25;0.25;;;29.40;57.30;;;;;;5058279;28;20041;-77
2022/08/13 10:46:05;;;;;;;0.50;0.50;;;29.40;62.60;;;;;;5056728;28;20041;-80
2022/08/13 10:48:31;;;;;;;0.10;0.10;;;29.40;59.50;;;;;;5050500;28;20056;-77
2022/08/13 10:50:58;;;;;;;0.10;0.10;;;29.50;60.00;;;;;;5050502;28;20048;-79
2022/08/13 10:56:12;;;;;;;0.17;0.17;;;29.70;57.30;;;;;;5066497;28;20107;-79
2022/08/13 10:58:42;;;;;;;0.20;0.20;;;29.60;59.90;;;;;;5045257;28;20093;-83
2022/08/13 11:01:08;;;;;;;0.10;0.10;;;29.70;60.30;;;;;;5052998;28;20107;-77
2022/08/13 11:03:34;;;;;;;0.20;0.20;;;29.80;60.40;;;;;;5035544;28;20421;-77
2022/08/13 11:06:00;;;;;;;0.43;0.43;;;29.90;59.20;;;;;;5066710;28;20048;-78
2022/08/13 11:08:34;;;;;;;0.03;0.03;;;30.00;60.20;;;;;;5057871;28;20080;-81
2022/08/13 11:11:09;;;;;;;0.30;0.30;;;30.10;61.20;;;;;;5048641;28;20044;-80
2022/08/13 11:13:36;;;;;;;0.35;0.35;;;30.20;63.40;;;;;;5054575;28;20496;-82
2022/08/13 11:18:54;;;;;;;0.10;0.10;;;30.20;68.60;;;;;;5052770;28;20061;-77
2022/08/13 11:21:20;;;;;;;0.20;0.20;;;30.20;66.70;;;;;;5056659;28;20116;-80
2022/08/13 11:23:46;;;;;;;0.10;0.10;;;30.20;66.80;;;;;;5057600;28;20072;-78
2022/08/13 11:26:11;;;;;;;0.28;0.28;;;30.50;66.40;;;;;;5068656;28;20032;-77
2022/08/13 11:28:37;;;;;;;0.20;0.20;;;30.40;66.10;;;;;;5065589;28;20047;-77
2022/08/13 11:31:03;;;;;;;0.45;0.40;;;30.50;67.10;;;;;;5049771;28;20044;-78
2022/08/13 11:33:32;;;;;;;0.17;0.17;;;30.50;65.80;;;;;;5064585;28;20513;-75
2022/08/13 11:35:59;;;;;;;0.50;0.50;;;30.60;67.50;;;;;;5038407;28;20081;-77
2022/08/13 11:38:26;;;;;;;0.20;0.20;;;30.80;68.20;;;;;;5048458;28;20041;-78
2022/08/13 11:40:56;;;;;;;0.35;0.30;;;30.80;68.10;;;;;;5051332;28;20075;-79
2022/08/13 11:43:27;;;;;;;0.47;0.30;;;30.90;68.40;;;;;;5058192;28;20416;-81
2022/08/13 11:45:53;;;;;;;0.10;0.10;;;31.40;70.60;;;;;;5071442;28;20044;-79
2022/08/13 11:48:20;;;;;;;0.20;0.20;;;31.00;65.60;;;;;;5049153;28;20045;-79
2022/08/13 11:50:50;;;;;;;0.20;0.20;;;30.50;65.90;;;;;;5049541;28;20081;-78
2022/08/13 11:53:20;;;;;;;1.10;0.20;;;30.90;64.30;;;;;;5033467;28;20044;-76
2022/08/13 11:55:45;;;;;;;0.10;0.10;;;31.00;66.50;;;;;;5045040;28;20041;-78
2022/08/13 11:58:11;;;;;;;0.13;0.13;;;31.10;65.90;;;;;;5050916;28;20047;-78
2022/08/13 12:00:40;;;;;;;0.10;0.10;;;31.00;63.30;;;;;;5065595;28;20076;-81
2022/08/13 12:03:06;;;;;;;0.20;0.20;;;31.20;65.00;;;;;;5051653;28;20088;-77
2022/08/13 12:05:32;;;;;;;0.30;0.30;;;31.20;64.80;;;;;;5057180;28;20045;-78
2022/08/13 12:07:58;;;;;;;0.10;0.10;;;31.40;53.30;;;;;;5050497;28;20041;-77
2022/08/13 12:10:24;;;;;;;0.10;0.10;;;31.60;53.80;;;;;;5059470;28;20053;-76
2022/08/13 12:12:51;;;;;;;0.08;0.08;;;31.80;53.60;;;;;;5052213;28;20048;-82
2022/08/13 12:15:17;;;;;;;0.20;0.20;;;31.90;51.40;;;;;;5061424;28;20510;-79
2022/08/13 12:17:45;;;;;;;0.10;0.10;;;32.10;52.30;;;;;;5057730;28;20044;-79
2022/08/13 12:20:15;;;;;;;0.22;0.22;;;32.10;51.10;;;;;;5054610;28;20483;-76
2022/08/13 12:22:41;;;;;;;0.25;0.25;;;32.30;51.30;;;;;;5057204;28;20044;-77
2022/08/13 12:25:08;;;;;;;0.30;0.30;;;32.40;49.70;;;;;;5053535;28;20487;-80
2022/08/13 12:27:35;;;;;;;0.55;0.55;;;32.40;51.20;;;;;;5059531;28;20049;-76
2022/08/13 12:30:02;;;;;;;0.20;0.20;;;32.40;49.30;;;;;;5061123;28;20049;-81
2022/08/13 12:32:28;;;;;;;0.20;0.20;;;32.40;48.10;;;;;;5055008;28;20064;-78
2022/08/13 12:34:53;;;;;;;0.10;0.10;;;32.50;50.30;;;;;;5050657;28;20172;-80
2022/08/13 12:37:23;;;;;;;0.10;0.10;;;32.70;50.10;;;;;;5055914;28;20052;-76
2022/08/13 12:39:52;;;;;;;0.30;0.30;;;32.80;51.70;;;;;;5056872;28;20068;-77
2022/08/13 12:42:18;;;;;;;0.10;0.10;;;33.00;48.70;;;;;;5064824;28;20124;-78
2022/08/13 12:44:44;;;;;;;0.30;0.30;;;33.00;49.60;;;;;;5056321;28;20044;-78
2022/08/13 12:47:10;;;;;;;0.17;0.17;;;33.10;49.70;;;;;;5053889;28;20049;-79
2022/08/13 12:49:36;;;;;;;0.22;0.22;;;33.20;48.10;;;;;;5053649;28;20068;-80
2022/08/13 12:52:01;;;;;;;0.10;0.10;;;33.40;49.70;;;;;;5076734;28;20068;-80
2022/08/13 12:54:28;;;;;;;0.20;0.20;;;33.50;48.50;;;;;;5037713;28;20097;-79
2022/08/13 12:56:53;;;;;;;0.20;0.20;;;33.60;47.90;;;;;;5052961;28;20432;-79
2022/08/13 12:59:20;;;;;;;0.20;0.20;;;33.90;46.20;;;;;;5062134;28;20124;-78
2022/08/13 13:01:53;;;;;;;0.30;0.30;;;34.00;47.90;;;;;;5053604;28;20037;-79
2022/08/13 13:04:23;;;;;;;0.20;0.20;;;34.20;47.30;;;;;;5074965;28;20049;-84
2022/08/13 13:06:52;;;;;;;0.30;0.30;;;34.40;46.60;;;;;;5053234;28;20041;-79
2022/08/13 13:09:19;;;;;;;0.60;0.60;;;34.60;49.50;;;;;;5046688;28;20091;-78
2022/08/13 13:11:45;;;;;;;0.10;0.10;;;34.70;48.00;;;;;;5054060;28;20518;-78
2022/08/13 13:14:12;;;;;;;0.20;0.20;;;34.70;44.80;;;;;;5058690;28;20044;-79
2022/08/13 13:16:43;;;;;;;0.30;0.30;;;34.40;45.40;;;;;;5052323;28;20055;-78
2022/08/13 13:19:10;;;;;;;0.20;0.20;;;34.20;46.60;;;;;;5057088;28;20048;-82
2022/08/13 13:21:38;;;;;;;1.75;0.47;;;34.20;51.70;;;;;;5050534;28;20573;-81
2022/08/13 13:24:07;;;;;;;1.23;0.95;;;34.30;48.70;;;;;;5033529;28;20134;-77